sensor_id;sensor_type;location;lat;lon;timestamp;P1;durP1;ratioP1;P2;durP2;ratioP2
11539;SDS011;5826;54.756;9.192;2023-03-20T00:00:20;3.60;;;2.80;;
11539;SDS011;5826;54.756;9.192;2023-03-20T00:02:52;2.90;;;2.42;;
11539;SDS011;5826;54.756;9.192;2023-03-20T00:05:19;3.55;;;2.83;;
11539;SDS011;5826;54.756;9.192;2023-03-20T00:07:47;3.28;;;2.58;;
11539;SDS011;5826;54.756;9.192;2023-03-20T00:10:13;3.37;;;2.37;;
11539;SDS011;5826;54.756;9.192;2023-03-20T00:12:40;3.83;;;2.70;;
11539;SDS011;5826;54.756;9.192;2023-03-20T00:15:16;2.60;;;2.30;;
11539;SDS011;5826;54.756;9.192;2023-03-20T00:17:49;2.17;;;1.97;;
11539;SDS011;5826;54.756;9.192;2023-03-20T00:20:15;3.23;;;2.03;;
11539;SDS011;5826;54.756;9.192;2023-03-20T00:22:41;2.50;;;1.90;;
11539;SDS011;5826;54.756;9.192;2023-03-20T00:25:11;2.60;;;2.07;;
11539;SDS011;5826;54.756;9.192;2023-03-20T00:27:41;2.03;;;1.70;;
11539;SDS011;5826;54.756;9.192;2023-03-20T00:30:13;2.00;;;1.70;;
11539;SDS011;5826;54.756;9.192;2023-03-20T00:32:47;2.37;;;1.57;;
11539;SDS011;5826;54.756;9.192;2023-03-20T00:35:15;1.63;;;1.47;;
11539;SDS011;5826;54.756;9.192;2023-03-20T00:37:43;2.23;;;1.80;;
11539;SDS011;5826;54.756;9.192;2023-03-20T00:40:09;1.40;;;1.30;;
11539;SDS011;5826;54.756;9.192;2023-03-20T00:42:35;1.77;;;1.40;;
11539;SDS011;5826;54.756;9.192;2023-03-20T00:45:01;2.27;;;1.90;;
11539;SDS011;5826;54.756;9.192;2023-03-20T00:47:26;1.40;;;1.30;;
11539;SDS011;5826;54.756;9.192;2023-03-20T00:49:54;1.93;;;1.40;;
11539;SDS011;5826;54.756;9.192;2023-03-20T00:52:20;2.53;;;1.40;;
11539;SDS011;5826;54.756;9.192;2023-03-20T00:54:46;1.60;;;1.50;;
11539;SDS011;5826;54.756;9.192;2023-03-20T00:59:48;1.60;;;1.50;;
11539;SDS011;5826;54.756;9.192;2023-03-20T01:02:16;1.95;;;1.50;;
11539;SDS011;5826;54.756;9.192;2023-03-20T01:04:41;1.60;;;1.50;;
11539;SDS011;5826;54.756;9.192;2023-03-20T01:07:09;1.50;;;1.40;;
11539;SDS011;5826;54.756;9.192;2023-03-20T01:09:37;1.87;;;1.53;;
11539;SDS011;5826;54.756;9.192;2023-03-20T01:12:03;2.20;;;2.00;;
11539;SDS011;5826;54.756;9.192;2023-03-20T01:14:31;2.10;;;1.90;;
11539;SDS011;5826;54.756;9.192;2023-03-20T01:16:57;2.37;;;2.13;;
11539;SDS011;5826;54.756;9.192;2023-03-20T01:19:23;2.80;;;2.50;;
11539;SDS011;5826;54.756;9.192;2023-03-20T01:21:48;2.38;;;2.03;;
11539;SDS011;5826;54.756;9.192;2023-03-20T01:24:14;3.03;;;2.72;;
11539;SDS011;5826;54.756;9.192;2023-03-20T01:26:41;2.67;;;2.43;;
11539;SDS011;5826;54.756;9.192;2023-03-20T01:31:47;1.95;;;1.70;;
11539;SDS011;5826;54.756;9.192;2023-03-20T01:34:13;2.45;;;2.25;;
11539;SDS011;5826;54.756;9.192;2023-03-20T01:36:40;2.38;;;2.03;;
11539;SDS011;5826;54.756;9.192;2023-03-20T01:39:15;4.03;;;2.23;;
11539;SDS011;5826;54.756;9.192;2023-03-20T01:41:42;2.47;;;2.03;;
11539;SDS011;5826;54.756;9.192;2023-03-20T01:44:26;2.17;;;1.97;;
11539;SDS011;5826;54.756;9.192;2023-03-20T01:46:54;2.40;;;2.20;;
11539;SDS011;5826;54.756;9.192;2023-03-20T01:51:45;2.23;;;1.60;;
11539;SDS011;5826;54.756;9.192;2023-03-20T01:54:13;1.80;;;1.70;;
11539;SDS011;5826;54.756;9.192;2023-03-20T01:56:44;1.90;;;1.30;;
11539;SDS011;5826;54.756;9.192;2023-03-20T01:59:13;1.53;;;1.40;;
11539;SDS011;5826;54.756;9.192;2023-03-20T02:01:44;1.20;;;1.10;;
11539;SDS011;5826;54.756;9.192;2023-03-20T02:04:10;2.30;;;1.33;;
11539;SDS011;5826;54.756;9.192;2023-03-20T02:06:37;1.10;;;1.00;;
11539;SDS011;5826;54.756;9.192;2023-03-20T02:09:04;1.37;;;1.27;;
11539;SDS011;5826;54.756;9.192;2023-03-20T02:11:30;1.40;;;1.30;;
11539;SDS011;5826;54.756;9.192;2023-03-20T02:13:57;1.40;;;1.30;;
11539;SDS011;5826;54.756;9.192;2023-03-20T02:16:24;1.00;;;1.00;;
11539;SDS011;5826;54.756;9.192;2023-03-20T02:18:50;1.30;;;1.20;;
11539;SDS011;5826;54.756;9.192;2023-03-20T02:24:09;1.40;;;0.90;;
11539;SDS011;5826;54.756;9.192;2023-03-20T02:32:26;0.80;;;0.80;;
11539;SDS011;5826;54.756;9.192;2023-03-20T02:38:42;0.80;;;0.80;;
11539;SDS011;5826;54.756;9.192;2023-03-20T02:42:07;1.20;;;1.07;;
11539;SDS011;5826;54.756;9.192;2023-03-20T02:44:40;1.20;;;0.90;;
11539;SDS011;5826;54.756;9.192;2023-03-20T02:50:26;0.70;;;0.70;;
11539;SDS011;5826;54.756;9.192;2023-03-20T02:53:09;1.20;;;0.80;;
11539;SDS011;5826;54.756;9.192;2023-03-20T02:55:48;2.00;;;1.03;;
11539;SDS011;5826;54.756;9.192;2023-03-20T02:58:23;1.13;;;1.03;;
11539;SDS011;5826;54.756;9.192;2023-03-20T03:00:59;1.20;;;0.90;;
11539;SDS011;5826;54.756;9.192;2023-03-20T03:03:32;2.10;;;1.63;;
11539;SDS011;5826;54.756;9.192;2023-03-20T03:06:09;1.90;;;1.30;;
11539;SDS011;5826;54.756;9.192;2023-03-20T03:08:42;1.30;;;1.03;;
11539;SDS011;5826;54.756;9.192;2023-03-20T03:11:12;1.43;;;1.20;;
11539;SDS011;5826;54.756;9.192;2023-03-20T03:13:39;2.57;;;1.20;;
11539;SDS011;5826;54.756;9.192;2023-03-20T03:16:20;3.10;;;1.83;;
11539;SDS011;5826;54.756;9.192;2023-03-20T03:19:06;2.87;;;2.07;;
11539;SDS011;5826;54.756;9.192;2023-03-20T03:21:34;3.23;;;1.90;;
11539;SDS011;5826;54.756;9.192;2023-03-20T03:24:03;3.50;;;1.90;;
11539;SDS011;5826;54.756;9.192;2023-03-20T03:26:36;5.13;;;2.33;;
11539;SDS011;5826;54.756;9.192;2023-03-20T03:29:05;2.43;;;2.00;;
11539;SDS011;5826;54.756;9.192;2023-03-20T03:31:37;3.33;;;2.27;;
11539;SDS011;5826;54.756;9.192;2023-03-20T03:34:02;6.40;;;3.20;;
11539;SDS011;5826;54.756;9.192;2023-03-20T03:36:35;6.23;;;3.50;;
11539;SDS011;5826;54.756;9.192;2023-03-20T03:41:52;5.40;;;3.20;;
11539;SDS011;5826;54.756;9.192;2023-03-20T03:44:37;6.33;;;3.43;;
11539;SDS011;5826;54.756;9.192;2023-03-20T03:47:12;7.30;;;3.37;;
11539;SDS011;5826;54.756;9.192;2023-03-20T03:50:01;7.50;;;3.37;;
11539;SDS011;5826;54.756;9.192;2023-03-20T03:52:38;5.67;;;2.77;;
11539;SDS011;5826;54.756;9.192;2023-03-20T03:55:07;6.60;;;2.97;;
11539;SDS011;5826;54.756;9.192;2023-03-20T03:58:20;7.07;;;2.57;;
11539;SDS011;5826;54.756;9.192;2023-03-20T04:00:28;7.10;;;2.70;;
11539;SDS011;5826;54.756;9.192;2023-03-20T04:02:57;6.80;;;3.10;;
11539;SDS011;5826;54.756;9.192;2023-03-20T04:05:24;8.93;;;3.33;;
11539;SDS011;5826;54.756;9.192;2023-03-20T04:07:55;7.07;;;3.43;;
11539;SDS011;5826;54.756;9.192;2023-03-20T04:10:23;9.30;;;3.00;;
11539;SDS011;5826;54.756;9.192;2023-03-20T04:12:49;6.37;;;2.70;;
11539;SDS011;5826;54.756;9.192;2023-03-20T04:15:15;5.73;;;2.97;;
11539;SDS011;5826;54.756;9.192;2023-03-20T04:17:41;9.73;;;2.40;;
11539;SDS011;5826;54.756;9.192;2023-03-20T04:20:07;3.87;;;2.20;;
11539;SDS011;5826;54.756;9.192;2023-03-20T04:22:35;5.03;;;2.50;;
11539;SDS011;5826;54.756;9.192;2023-03-20T04:25:01;6.40;;;2.27;;
11539;SDS011;5826;54.756;9.192;2023-03-20T04:27:29;5.47;;;2.00;;
11539;SDS011;5826;54.756;9.192;2023-03-20T04:29:54;4.77;;;2.00;;
11539;SDS011;5826;54.756;9.192;2023-03-20T04:32:20;8.33;;;2.10;;
11539;SDS011;5826;54.756;9.192;2023-03-20T04:34:46;7.47;;;2.23;;
11539;SDS011;5826;54.756;9.192;2023-03-20T04:37:11;6.13;;;1.87;;
11539;SDS011;5826;54.756;9.192;2023-03-20T04:39:37;5.13;;;2.20;;
11539;SDS011;5826;54.756;9.192;2023-03-20T04:42:03;6.77;;;2.67;;
11539;SDS011;5826;54.756;9.192;2023-03-20T04:44:29;6.33;;;2.40;;
11539;SDS011;5826;54.756;9.192;2023-03-20T04:46:55;6.00;;;2.13;;
11539;SDS011;5826;54.756;9.192;2023-03-20T04:49:21;5.37;;;1.70;;
11539;SDS011;5826;54.756;9.192;2023-03-20T04:51:46;5.67;;;1.80;;
11539;SDS011;5826;54.756;9.192;2023-03-20T04:54:12;7.00;;;2.27;;
11539;SDS011;5826;54.756;9.192;2023-03-20T04:56:37;5.83;;;2.53;;
11539;SDS011;5826;54.756;9.192;2023-03-20T04:59:03;6.83;;;2.00;;
11539;SDS011;5826;54.756;9.192;2023-03-20T05:01:28;8.83;;;2.87;;
11539;SDS011;5826;54.756;9.192;2023-03-20T05:03:54;6.07;;;2.00;;
11539;SDS011;5826;54.756;9.192;2023-03-20T05:06:25;5.33;;;2.13;;
11539;SDS011;5826;54.756;9.192;2023-03-20T05:08:51;6.20;;;2.43;;
11539;SDS011;5826;54.756;9.192;2023-03-20T05:11:17;4.87;;;2.20;;
11539;SDS011;5826;54.756;9.192;2023-03-20T05:13:42;7.37;;;2.37;;
11539;SDS011;5826;54.756;9.192;2023-03-20T05:16:08;5.07;;;2.00;;
11539;SDS011;5826;54.756;9.192;2023-03-20T05:18:33;4.97;;;2.00;;
11539;SDS011;5826;54.756;9.192;2023-03-20T05:20:59;5.30;;;2.53;;
11539;SDS011;5826;54.756;9.192;2023-03-20T05:23:25;4.63;;;2.17;;
11539;SDS011;5826;54.756;9.192;2023-03-20T05:25:50;5.80;;;2.20;;
11539;SDS011;5826;54.756;9.192;2023-03-20T05:28:16;7.20;;;2.60;;
11539;SDS011;5826;54.756;9.192;2023-03-20T05:30:41;6.40;;;2.47;;
11539;SDS011;5826;54.756;9.192;2023-03-20T05:33:07;7.77;;;2.63;;
11539;SDS011;5826;54.756;9.192;2023-03-20T05:35:32;5.40;;;2.30;;
11539;SDS011;5826;54.756;9.192;2023-03-20T05:37:58;3.37;;;2.00;;
11539;SDS011;5826;54.756;9.192;2023-03-20T05:40:24;3.60;;;1.83;;
11539;SDS011;5826;54.756;9.192;2023-03-20T05:42:50;4.63;;;2.20;;
11539;SDS011;5826;54.756;9.192;2023-03-20T05:45:16;4.67;;;1.63;;
11539;SDS011;5826;54.756;9.192;2023-03-20T05:47:42;5.03;;;2.10;;
11539;SDS011;5826;54.756;9.192;2023-03-20T05:50:09;5.17;;;2.00;;
11539;SDS011;5826;54.756;9.192;2023-03-20T05:52:35;3.87;;;1.77;;
11539;SDS011;5826;54.756;9.192;2023-03-20T05:55:01;4.60;;;2.13;;
11539;SDS011;5826;54.756;9.192;2023-03-20T05:57:26;6.57;;;2.47;;
11539;SDS011;5826;54.756;9.192;2023-03-20T05:59:52;6.33;;;2.70;;
11539;SDS011;5826;54.756;9.192;2023-03-20T06:02:17;5.17;;;2.43;;
11539;SDS011;5826;54.756;9.192;2023-03-20T06:04:43;4.50;;;2.50;;
11539;SDS011;5826;54.756;9.192;2023-03-20T06:07:08;6.67;;;2.60;;
11539;SDS011;5826;54.756;9.192;2023-03-20T06:09:34;5.97;;;2.17;;
11539;SDS011;5826;54.756;9.192;2023-03-20T06:11:59;5.60;;;2.30;;
11539;SDS011;5826;54.756;9.192;2023-03-20T06:14:25;6.67;;;2.43;;
11539;SDS011;5826;54.756;9.192;2023-03-20T06:16:51;6.00;;;2.33;;
11539;SDS011;5826;54.756;9.192;2023-03-20T06:19:18;4.63;;;2.30;;
11539;SDS011;5826;54.756;9.192;2023-03-20T06:21:44;5.67;;;2.40;;
11539;SDS011;5826;54.756;9.192;2023-03-20T06:24:10;5.67;;;2.37;;
11539;SDS011;5826;54.756;9.192;2023-03-20T06:26:35;5.10;;;2.00;;
11539;SDS011;5826;54.756;9.192;2023-03-20T06:29:01;4.73;;;2.80;;
11539;SDS011;5826;54.756;9.192;2023-03-20T06:31:27;4.30;;;2.07;;
11539;SDS011;5826;54.756;9.192;2023-03-20T06:33:52;5.63;;;2.30;;
11539;SDS011;5826;54.756;9.192;2023-03-20T06:36:18;5.83;;;2.80;;
11539;SDS011;5826;54.756;9.192;2023-03-20T06:38:43;5.90;;;2.70;;
11539;SDS011;5826;54.756;9.192;2023-03-20T06:41:09;5.43;;;2.63;;
11539;SDS011;5826;54.756;9.192;2023-03-20T06:43:35;5.53;;;2.10;;
11539;SDS011;5826;54.756;9.192;2023-03-20T06:46:01;4.60;;;2.43;;
11539;SDS011;5826;54.756;9.192;2023-03-20T06:48:26;4.30;;;2.13;;
11539;SDS011;5826;54.756;9.192;2023-03-20T06:50:52;6.67;;;2.30;;
11539;SDS011;5826;54.756;9.192;2023-03-20T06:53:18;3.90;;;1.97;;
11539;SDS011;5826;54.756;9.192;2023-03-20T06:55:50;5.20;;;1.97;;
11539;SDS011;5826;54.756;9.192;2023-03-20T06:58:16;4.13;;;1.80;;
11539;SDS011;5826;54.756;9.192;2023-03-20T07:00:41;3.43;;;1.90;;
11539;SDS011;5826;54.756;9.192;2023-03-20T07:03:07;4.90;;;1.93;;
11539;SDS011;5826;54.756;9.192;2023-03-20T07:05:34;4.03;;;1.80;;
11539;SDS011;5826;54.756;9.192;2023-03-20T07:07:59;4.30;;;1.60;;
11539;SDS011;5826;54.756;9.192;2023-03-20T07:10:25;3.80;;;1.80;;
11539;SDS011;5826;54.756;9.192;2023-03-20T07:12:52;4.80;;;1.70;;
11539;SDS011;5826;54.756;9.192;2023-03-20T07:15:18;3.90;;;1.77;;
11539;SDS011;5826;54.756;9.192;2023-03-20T07:17:44;4.10;;;1.70;;
11539;SDS011;5826;54.756;9.192;2023-03-20T07:20:10;3.87;;;1.70;;
11539;SDS011;5826;54.756;9.192;2023-03-20T07:22:35;3.50;;;1.67;;
11539;SDS011;5826;54.756;9.192;2023-03-20T07:25:01;3.63;;;1.60;;
11539;SDS011;5826;54.756;9.192;2023-03-20T07:27:27;3.17;;;1.63;;
11539;SDS011;5826;54.756;9.192;2023-03-20T07:29:52;2.83;;;1.67;;
11539;SDS011;5826;54.756;9.192;2023-03-20T07:32:17;2.87;;;1.20;;
11539;SDS011;5826;54.756;9.192;2023-03-20T07:34:43;2.87;;;1.23;;
11539;SDS011;5826;54.756;9.192;2023-03-20T07:37:09;4.03;;;1.80;;
11539;SDS011;5826;54.756;9.192;2023-03-20T07:39:34;2.83;;;1.70;;
11539;SDS011;5826;54.756;9.192;2023-03-20T07:42:00;3.20;;;1.83;;
11539;SDS011;5826;54.756;9.192;2023-03-20T07:44:26;3.87;;;1.83;;
11539;SDS011;5826;54.756;9.192;2023-03-20T07:46:51;2.97;;;1.93;;
11539;SDS011;5826;54.756;9.192;2023-03-20T07:49:17;4.30;;;2.20;;
11539;SDS011;5826;54.756;9.192;2023-03-20T07:51:43;5.40;;;2.80;;
11539;SDS011;5826;54.756;9.192;2023-03-20T07:54:09;4.03;;;2.30;;
11539;SDS011;5826;54.756;9.192;2023-03-20T07:56:35;4.40;;;2.60;;
11539;SDS011;5826;54.756;9.192;2023-03-20T07:59:01;4.13;;;2.73;;
11539;SDS011;5826;54.756;9.192;2023-03-20T08:01:26;5.60;;;2.40;;
11539;SDS011;5826;54.756;9.192;2023-03-20T08:03:52;5.00;;;2.83;;
11539;SDS011;5826;54.756;9.192;2023-03-20T08:06:17;6.17;;;3.00;;
11539;SDS011;5826;54.756;9.192;2023-03-20T08:08:43;4.53;;;2.50;;
11539;SDS011;5826;54.756;9.192;2023-03-20T08:11:09;4.13;;;2.80;;
11539;SDS011;5826;54.756;9.192;2023-03-20T08:13:35;6.43;;;3.07;;
11539;SDS011;5826;54.756;9.192;2023-03-20T08:16:01;5.57;;;2.73;;
11539;SDS011;5826;54.756;9.192;2023-03-20T08:18:27;5.03;;;2.77;;
11539;SDS011;5826;54.756;9.192;2023-03-20T08:20:53;5.30;;;2.53;;
11539;SDS011;5826;54.756;9.192;2023-03-20T08:23:18;5.10;;;2.67;;
11539;SDS011;5826;54.756;9.192;2023-03-20T08:25:47;7.10;;;2.90;;
11539;SDS011;5826;54.756;9.192;2023-03-20T08:28:13;4.73;;;2.73;;
11539;SDS011;5826;54.756;9.192;2023-03-20T08:30:39;6.83;;;3.10;;
11539;SDS011;5826;54.756;9.192;2023-03-20T08:33:05;7.93;;;3.17;;
11539;SDS011;5826;54.756;9.192;2023-03-20T08:35:31;6.07;;;3.93;;
11539;SDS011;5826;54.756;9.192;2023-03-20T08:37:56;5.53;;;3.67;;
11539;SDS011;5826;54.756;9.192;2023-03-20T08:40:22;6.90;;;3.70;;
11539;SDS011;5826;54.756;9.192;2023-03-20T08:42:47;4.83;;;3.03;;
11539;SDS011;5826;54.756;9.192;2023-03-20T08:45:13;5.83;;;3.27;;
11539;SDS011;5826;54.756;9.192;2023-03-20T08:47:38;7.47;;;3.90;;
11539;SDS011;5826;54.756;9.192;2023-03-20T08:50:04;6.93;;;3.80;;
11539;SDS011;5826;54.756;9.192;2023-03-20T08:52:31;6.13;;;3.70;;
11539;SDS011;5826;54.756;9.192;2023-03-20T08:54:57;6.87;;;3.50;;
11539;SDS011;5826;54.756;9.192;2023-03-20T08:57:22;5.80;;;3.40;;
11539;SDS011;5826;54.756;9.192;2023-03-20T08:59:48;5.30;;;2.83;;
11539;SDS011;5826;54.756;9.192;2023-03-20T09:02:13;7.27;;;3.83;;
11539;SDS011;5826;54.756;9.192;2023-03-20T09:04:39;4.13;;;2.70;;
11539;SDS011;5826;54.756;9.192;2023-03-20T09:07:05;6.03;;;3.27;;
11539;SDS011;5826;54.756;9.192;2023-03-20T09:09:31;4.07;;;2.67;;
11539;SDS011;5826;54.756;9.192;2023-03-20T09:11:57;5.57;;;3.23;;
11539;SDS011;5826;54.756;9.192;2023-03-20T09:14:23;5.00;;;3.20;;
11539;SDS011;5826;54.756;9.192;2023-03-20T09:16:50;5.93;;;3.33;;
11539;SDS011;5826;54.756;9.192;2023-03-20T09:19:16;6.20;;;3.70;;
11539;SDS011;5826;54.756;9.192;2023-03-20T09:21:42;5.03;;;3.63;;
11539;SDS011;5826;54.756;9.192;2023-03-20T09:24:07;6.47;;;3.83;;
11539;SDS011;5826;54.756;9.192;2023-03-20T09:26:33;6.53;;;5.00;;
11539;SDS011;5826;54.756;9.192;2023-03-20T09:28:58;7.67;;;4.07;;
11539;SDS011;5826;54.756;9.192;2023-03-20T09:31:24;5.13;;;4.07;;
11539;SDS011;5826;54.756;9.192;2023-03-20T09:33:49;4.70;;;3.63;;
11539;SDS011;5826;54.756;9.192;2023-03-20T09:36:15;8.47;;;4.30;;
11539;SDS011;5826;54.756;9.192;2023-03-20T09:38:41;5.90;;;3.77;;
11539;SDS011;5826;54.756;9.192;2023-03-20T09:41:09;8.07;;;3.93;;
11539;SDS011;5826;54.756;9.192;2023-03-20T09:43:56;5.77;;;4.70;;
11539;SDS011;5826;54.756;9.192;2023-03-20T09:49:39;6.30;;;4.20;;
11539;SDS011;5826;54.756;9.192;2023-03-20T09:55:22;4.93;;;3.60;;
11539;SDS011;5826;54.756;9.192;2023-03-20T09:57:46;10.87;;;6.33;;
11539;SDS011;5826;54.756;9.192;2023-03-20T10:00:21;5.50;;;4.93;;
11539;SDS011;5826;54.756;9.192;2023-03-20T10:03:00;6.40;;;4.57;;
11539;SDS011;5826;54.756;9.192;2023-03-20T10:08:20;8.80;;;5.93;;
11539;SDS011;5826;54.756;9.192;2023-03-20T10:10:58;9.80;;;4.63;;
11539;SDS011;5826;54.756;9.192;2023-03-20T10:18:37;9.03;;;6.17;;
11539;SDS011;5826;54.756;9.192;2023-03-20T10:21:19;7.03;;;4.87;;
11539;SDS011;5826;54.756;9.192;2023-03-20T10:26:28;10.63;;;5.90;;
11539;SDS011;5826;54.756;9.192;2023-03-20T10:28:59;12.80;;;6.67;;
11539;SDS011;5826;54.756;9.192;2023-03-20T10:31:33;9.20;;;6.18;;
11539;SDS011;5826;54.756;9.192;2023-03-20T10:36:50;7.03;;;4.93;;
11539;SDS011;5826;54.756;9.192;2023-03-20T10:39:33;13.37;;;7.23;;
11539;SDS011;5826;54.756;9.192;2023-03-20T10:42:20;13.40;;;7.83;;
11539;SDS011;5826;54.756;9.192;2023-03-20T10:44:54;12.80;;;7.30;;
11539;SDS011;5826;54.756;9.192;2023-03-20T10:47:22;15.30;;;6.67;;
11539;SDS011;5826;54.756;9.192;2023-03-20T10:49:51;10.53;;;6.73;;
11539;SDS011;5826;54.756;9.192;2023-03-20T10:52:32;14.40;;;6.50;;
11539;SDS011;5826;54.756;9.192;2023-03-20T10:55:02;12.37;;;7.20;;
11539;SDS011;5826;54.756;9.192;2023-03-20T10:57:32;13.53;;;8.17;;
11539;SDS011;5826;54.756;9.192;2023-03-20T11:00:02;13.00;;;7.37;;
11539;SDS011;5826;54.756;9.192;2023-03-20T11:02:34;11.90;;;7.00;;
11539;SDS011;5826;54.756;9.192;2023-03-20T11:05:17;14.57;;;7.33;;
11539;SDS011;5826;54.756;9.192;2023-03-20T11:07:50;11.77;;;6.87;;
11539;SDS011;5826;54.756;9.192;2023-03-20T11:10:25;10.30;;;6.23;;
11539;SDS011;5826;54.756;9.192;2023-03-20T11:12:51;13.87;;;8.50;;
11539;SDS011;5826;54.756;9.192;2023-03-20T11:15:24;9.47;;;6.17;;
11539;SDS011;5826;54.756;9.192;2023-03-20T11:18:02;10.40;;;6.73;;
11539;SDS011;5826;54.756;9.192;2023-03-20T11:20:34;12.43;;;7.80;;
11539;SDS011;5826;54.756;9.192;2023-03-20T11:23:04;14.93;;;8.00;;
11539;SDS011;5826;54.756;9.192;2023-03-20T11:26:18;13.23;;;7.80;;
11539;SDS011;5826;54.756;9.192;2023-03-20T11:28:38;12.10;;;7.57;;
11539;SDS011;5826;54.756;9.192;2023-03-20T11:31:06;14.53;;;8.23;;
11539;SDS011;5826;54.756;9.192;2023-03-20T11:33:45;15.00;;;8.43;;
11539;SDS011;5826;54.756;9.192;2023-03-20T11:36:30;10.57;;;6.50;;
11539;SDS011;5826;54.756;9.192;2023-03-20T11:41:35;16.13;;;8.87;;
11539;SDS011;5826;54.756;9.192;2023-03-20T11:47:01;12.03;;;7.43;;
11539;SDS011;5826;54.756;9.192;2023-03-20T11:49:45;12.73;;;7.47;;
11539;SDS011;5826;54.756;9.192;2023-03-20T11:52:16;10.90;;;7.63;;
11539;SDS011;5826;54.756;9.192;2023-03-20T11:54:47;12.53;;;7.20;;
11539;SDS011;5826;54.756;9.192;2023-03-20T11:57:31;12.43;;;7.77;;
11539;SDS011;5826;54.756;9.192;2023-03-20T12:02:39;12.93;;;8.27;;
11539;SDS011;5826;54.756;9.192;2023-03-20T12:05:17;11.97;;;8.00;;
11539;SDS011;5826;54.756;9.192;2023-03-20T12:07:43;13.73;;;7.13;;
11539;SDS011;5826;54.756;9.192;2023-03-20T12:10:13;12.63;;;7.03;;
11539;SDS011;5826;54.756;9.192;2023-03-20T12:12:44;15.93;;;9.37;;
11539;SDS011;5826;54.756;9.192;2023-03-20T12:15:24;13.43;;;8.57;;
11539;SDS011;5826;54.756;9.192;2023-03-20T12:22:59;16.73;;;8.73;;
11539;SDS011;5826;54.756;9.192;2023-03-20T12:25:54;16.50;;;9.93;;
11539;SDS011;5826;54.756;9.192;2023-03-20T12:28:31;14.70;;;8.70;;
11539;SDS011;5826;54.756;9.192;2023-03-20T12:31:52;14.60;;;8.57;;
11539;SDS011;5826;54.756;9.192;2023-03-20T12:36:35;15.40;;;9.17;;
11539;SDS011;5826;54.756;9.192;2023-03-20T12:39:04;18.03;;;9.30;;
11539;SDS011;5826;54.756;9.192;2023-03-20T12:41:40;15.20;;;8.73;;
11539;SDS011;5826;54.756;9.192;2023-03-20T12:47:50;16.30;;;9.17;;
11539;SDS011;5826;54.756;9.192;2023-03-20T12:50:41;15.40;;;8.80;;
11539;SDS011;5826;54.756;9.192;2023-03-20T12:59:26;14.90;;;8.53;;
11539;SDS011;5826;54.756;9.192;2023-03-20T13:02:03;14.87;;;8.63;;
11539;SDS011;5826;54.756;9.192;2023-03-20T13:07:06;15.67;;;8.67;;
11539;SDS011;5826;54.756;9.192;2023-03-20T13:12:30;17.10;;;8.97;;
11539;SDS011;5826;54.756;9.192;2023-03-20T13:17:49;9.67;;;6.40;;
11539;SDS011;5826;54.756;9.192;2023-03-20T13:20:38;15.47;;;7.67;;
11539;SDS011;5826;54.756;9.192;2023-03-20T13:23:20;16.93;;;8.20;;
11539;SDS011;5826;54.756;9.192;2023-03-20T13:31:40;17.07;;;8.60;;
11539;SDS011;5826;54.756;9.192;2023-03-20T13:37:30;13.03;;;7.93;;
11539;SDS011;5826;54.756;9.192;2023-03-20T13:42:59;15.30;;;7.77;;
11539;SDS011;5826;54.756;9.192;2023-03-20T13:45:38;14.53;;;7.07;;
11539;SDS011;5826;54.756;9.192;2023-03-20T13:48:18;10.20;;;6.57;;
11539;SDS011;5826;54.756;9.192;2023-03-20T13:56:36;13.60;;;6.60;;
11539;SDS011;5826;54.756;9.192;2023-03-20T14:05:00;12.20;;;5.67;;
11539;SDS011;5826;54.756;9.192;2023-03-20T14:07:35;12.53;;;6.20;;
11539;SDS011;5826;54.756;9.192;2023-03-20T14:12:52;15.37;;;6.70;;
11539;SDS011;5826;54.756;9.192;2023-03-20T14:15:31;12.63;;;5.83;;
11539;SDS011;5826;54.756;9.192;2023-03-20T14:18:02;11.87;;;5.43;;
11539;SDS011;5826;54.756;9.192;2023-03-20T14:20:33;11.97;;;5.13;;
11539;SDS011;5826;54.756;9.192;2023-03-20T14:23:01;14.57;;;6.10;;
11539;SDS011;5826;54.756;9.192;2023-03-20T14:25:31;10.30;;;4.87;;
11539;SDS011;5826;54.756;9.192;2023-03-20T14:28:06;12.53;;;5.67;;
11539;SDS011;5826;54.756;9.192;2023-03-20T14:30:48;10.23;;;4.77;;
11539;SDS011;5826;54.756;9.192;2023-03-20T14:38:28;13.83;;;5.20;;
11539;SDS011;5826;54.756;9.192;2023-03-20T14:40:59;11.97;;;5.37;;
11539;SDS011;5826;54.756;9.192;2023-03-20T14:49:43;11.57;;;4.90;;
11539;SDS011;5826;54.756;9.192;2023-03-20T14:52:19;12.27;;;5.00;;
11539;SDS011;5826;54.756;9.192;2023-03-20T14:54:57;7.93;;;5.00;;
11539;SDS011;5826;54.756;9.192;2023-03-20T14:57:44;7.83;;;3.90;;
11539;SDS011;5826;54.756;9.192;2023-03-20T15:02:47;8.87;;;4.97;;
11539;SDS011;5826;54.756;9.192;2023-03-20T15:05:25;10.40;;;4.47;;
11539;SDS011;5826;54.756;9.192;2023-03-20T15:07:57;9.10;;;4.20;;
11539;SDS011;5826;54.756;9.192;2023-03-20T15:10:49;10.67;;;5.23;;
11539;SDS011;5826;54.756;9.192;2023-03-20T15:13:17;11.13;;;5.60;;
11539;SDS011;5826;54.756;9.192;2023-03-20T15:15:51;11.07;;;5.27;;
11539;SDS011;5826;54.756;9.192;2023-03-20T15:18:23;7.70;;;5.10;;
11539;SDS011;5826;54.756;9.192;2023-03-20T15:20:50;13.03;;;7.80;;
11539;SDS011;5826;54.756;9.192;2023-03-20T15:23:16;14.47;;;6.70;;
11539;SDS011;5826;54.756;9.192;2023-03-20T15:25:43;14.53;;;7.10;;
11539;SDS011;5826;54.756;9.192;2023-03-20T15:28:14;14.53;;;6.37;;
11539;SDS011;5826;54.756;9.192;2023-03-20T15:30:44;11.33;;;6.43;;
11539;SDS011;5826;54.756;9.192;2023-03-20T15:33:18;12.43;;;5.97;;
11539;SDS011;5826;54.756;9.192;2023-03-20T15:35:51;14.93;;;6.10;;
11539;SDS011;5826;54.756;9.192;2023-03-20T15:38:17;11.77;;;6.60;;
11539;SDS011;5826;54.756;9.192;2023-03-20T15:40:43;13.80;;;7.40;;
11539;SDS011;5826;54.756;9.192;2023-03-20T15:45:41;10.50;;;6.07;;
11539;SDS011;5826;54.756;9.192;2023-03-20T15:48:10;14.27;;;5.93;;
11539;SDS011;5826;54.756;9.192;2023-03-20T15:50:42;9.90;;;5.80;;
11539;SDS011;5826;54.756;9.192;2023-03-20T15:53:14;15.50;;;6.70;;
11539;SDS011;5826;54.756;9.192;2023-03-20T15:55:47;9.27;;;5.33;;
11539;SDS011;5826;54.756;9.192;2023-03-20T15:58:14;13.10;;;5.80;;
11539;SDS011;5826;54.756;9.192;2023-03-20T16:00:45;12.53;;;5.50;;
11539;SDS011;5826;54.756;9.192;2023-03-20T16:03:18;13.13;;;7.40;;
11539;SDS011;5826;54.756;9.192;2023-03-20T16:05:47;13.03;;;6.40;;
11539;SDS011;5826;54.756;9.192;2023-03-20T16:10:46;10.50;;;5.27;;
11539;SDS011;5826;54.756;9.192;2023-03-20T16:13:12;11.27;;;6.20;;
11539;SDS011;5826;54.756;9.192;2023-03-20T16:15:38;8.23;;;5.20;;
11539;SDS011;5826;54.756;9.192;2023-03-20T16:18:04;10.33;;;4.97;;
11539;SDS011;5826;54.756;9.192;2023-03-20T16:20:38;12.37;;;6.73;;
11539;SDS011;5826;54.756;9.192;2023-03-20T16:23:39;14.37;;;7.73;;
11539;SDS011;5826;54.756;9.192;2023-03-20T16:26:10;21.70;;;12.80;;
11539;SDS011;5826;54.756;9.192;2023-03-20T16:28:40;14.67;;;8.47;;
11539;SDS011;5826;54.756;9.192;2023-03-20T16:31:06;15.63;;;8.07;;
11539;SDS011;5826;54.756;9.192;2023-03-20T16:33:34;11.30;;;7.53;;
11539;SDS011;5826;54.756;9.192;2023-03-20T16:36:01;8.83;;;5.60;;
11539;SDS011;5826;54.756;9.192;2023-03-20T16:38:30;9.30;;;5.73;;
11539;SDS011;5826;54.756;9.192;2023-03-20T16:43:49;10.17;;;5.00;;
11539;SDS011;5826;54.756;9.192;2023-03-20T16:46:16;8.40;;;4.50;;
11539;SDS011;5826;54.756;9.192;2023-03-20T16:48:46;10.50;;;6.27;;
11539;SDS011;5826;54.756;9.192;2023-03-20T16:51:16;8.50;;;4.57;;
11539;SDS011;5826;54.756;9.192;2023-03-20T16:53:54;11.47;;;5.47;;
11539;SDS011;5826;54.756;9.192;2023-03-20T16:56:26;11.53;;;6.57;;
11539;SDS011;5826;54.756;9.192;2023-03-20T16:58:56;12.43;;;5.27;;
11539;SDS011;5826;54.756;9.192;2023-03-20T17:01:26;8.23;;;4.87;;
11539;SDS011;5826;54.756;9.192;2023-03-20T17:03:53;8.77;;;4.57;;
11539;SDS011;5826;54.756;9.192;2023-03-20T17:09:29;9.80;;;5.17;;
11539;SDS011;5826;54.756;9.192;2023-03-20T17:11:47;7.43;;;4.63;;
11539;SDS011;5826;54.756;9.192;2023-03-20T17:14:14;6.77;;;4.73;;
11539;SDS011;5826;54.756;9.192;2023-03-20T17:16:40;11.10;;;4.73;;
11539;SDS011;5826;54.756;9.192;2023-03-20T17:19:07;8.87;;;5.10;;
11539;SDS011;5826;54.756;9.192;2023-03-20T17:21:38;9.43;;;4.67;;
11539;SDS011;5826;54.756;9.192;2023-03-20T17:24:03;8.23;;;4.67;;